Terminal Aerodrome Forecast
Issued by NWS Charleston, WV

Current Version | Previous Version | Graphics & Text | Print | Product List | Glossary On
Versions: 1 2 3 4 5 6 7 8 9 10 11 12 13 14 15 16 17 18 19 20 21 22 23 24 25 26 27 28
000
FTUS41 KRLX 032357
TAFCRW
TAF
KCRW 032357Z 0400/0424 00000KT 5SM SHRA BR VCTS SCT025 BKN040CB
     FM040300 00000KT 3SM BR VCSH OVC025
     FM040500 00000KT 4SM BR OVC015
     FM040600 00000KT 2SM BR OVC008
     FM040800 00000KT 1SM BR OVC003
     FM041200 00000KT 3SM BR OVC006
     FM041400 32003KT P6SM OVC012
     FM041800 30004KT P6SM BKN035=

USA.gov is the U.S. government's official web portal to all federal, state and local government web resources and services.